Japan Airlines Virtual Airport Information Service

Fuzhou Changle International Airport

ICAO: ZSFZ Country: China
Latitude: 25.9351 Longitude: 119.663
Latest Arrival : CXA8690 (RJCC-ZSFZ) Latest Departure : CES8725 (ZSFZ-ZJSY)


WX CaptureLIVE
Data provided by noaa.gov | Fetched at 16:05:25

METAR : ZSFZ 291500Z 02004MPS 5000 -RA BR SCT013 OVC019 22/20 Q1010 NOSIG

TAF : ZSFZ 290914Z 2912/3012 03004MPS 6000 BKN015 TX26/3006Z TN20/2921Z


Runway Data for ZSFZ
Data provided by openaviationdata.com

Runway ID Mag Var Hdg Length Elevation Surface ILS Freq ILS Id ILS Slope
3 -3 29° 11838 ft 46 ft Concrete 110.7 ICL 3
21 -3 209° 11838 ft 46 ft Concrete 110.3 INN 3

Fuzhou Changle International Airport, China
Use only for reference purposes



Not for navigational purposes.